Terminal Aerodrome Forecast
Issued by NWS

Home | Current Version | Previous Version | Text Only | Print | Product List | Glossary On
Versions: 1 2 3 4 5 6 7 8 9 10 11 12 13 14 15 16 17 18 19 20 21 22 23 24 25 26 27 28 29 30 31 32 33 34 35 36 37 38
000
FTUS45 KGJT 110541
TAFEGE
TAF
KEGE 110541Z 1106/1206 24009KT 5SM -SNRA OVC040
      TEMPO 1108/1112 2SM -SNRA OVC030
     FM111200 24012G20KT 4SM -SN BLSN OVC030
     FM111600 25014G23KT P6SM VCSH BKN035
     FM112300 23008KT P6SM SCT040
     FM120500 24007KT P6SM BKN045
      AMD LTD TO CLD VIS AND WIND TIL 111300=

USA.gov is the U.S. government's official web portal to all federal, state and local government web resources and services.